sensor_id;sensor_type;location;lat;lon;timestamp;temperature;humidity
59469;DHT22;45277;52.768;18.262;2023-04-01T00:00:04;9.40;99.90
59469;DHT22;45277;52.768;18.262;2023-04-01T00:01:36;9.40;99.90
59469;DHT22;45277;52.768;18.262;2023-04-01T00:03:08;9.40;99.90
59469;DHT22;45277;52.768;18.262;2023-04-01T00:04:39;9.40;99.90
59469;DHT22;45277;52.768;18.262;2023-04-01T00:06:16;9.40;99.90
59469;DHT22;45277;52.768;18.262;2023-04-01T00:07:47;9.40;99.90
59469;DHT22;45277;52.768;18.262;2023-04-01T00:09:19;9.40;99.90
59469;DHT22;45277;52.768;18.262;2023-04-01T00:10:50;9.40;99.90
59469;DHT22;45277;52.768;18.262;2023-04-01T00:12:22;9.30;99.90
59469;DHT22;45277;52.768;18.262;2023-04-01T00:13:54;9.30;99.90
59469;DHT22;45277;52.768;18.262;2023-04-01T00:15:26;9.30;99.90
59469;DHT22;45277;52.768;18.262;2023-04-01T00:16:57;9.40;99.90
59469;DHT22;45277;52.768;18.262;2023-04-01T00:18:29;9.30;99.90
59469;DHT22;45277;52.768;18.262;2023-04-01T00:20:00;9.30;99.90
59469;DHT22;45277;52.768;18.262;2023-04-01T00:21:32;9.30;99.90
59469;DHT22;45277;52.768;18.262;2023-04-01T00:23:04;9.30;99.90
59469;DHT22;45277;52.768;18.262;2023-04-01T00:24:36;9.30;99.90
59469;DHT22;45277;52.768;18.262;2023-04-01T00:26:07;9.30;99.90
59469;DHT22;45277;52.768;18.262;2023-04-01T00:27:39;9.30;99.90
59469;DHT22;45277;52.768;18.262;2023-04-01T00:29:10;9.30;99.90
59469;DHT22;45277;52.768;18.262;2023-04-01T00:30:42;9.20;99.90
59469;DHT22;45277;52.768;18.262;2023-04-01T00:32:14;9.20;99.90
59469;DHT22;45277;52.768;18.262;2023-04-01T00:33:46;9.20;99.90
59469;DHT22;45277;52.768;18.262;2023-04-01T00:35:17;9.20;99.90
59469;DHT22;45277;52.768;18.262;2023-04-01T00:36:52;9.20;99.90
59469;DHT22;45277;52.768;18.262;2023-04-01T00:38:23;9.20;99.90
59469;DHT22;45277;52.768;18.262;2023-04-01T00:39:55;9.20;99.90
59469;DHT22;45277;52.768;18.262;2023-04-01T00:41:27;9.20;99.90
59469;DHT22;45277;52.768;18.262;2023-04-01T00:42:59;9.20;99.90
59469;DHT22;45277;52.768;18.262;2023-04-01T00:44:33;9.20;99.90
59469;DHT22;45277;52.768;18.262;2023-04-01T00:46:05;9.20;99.90
59469;DHT22;45277;52.768;18.262;2023-04-01T00:47:36;9.20;99.90
59469;DHT22;45277;52.768;18.262;2023-04-01T00:49:09;9.20;99.90
59469;DHT22;45277;52.768;18.262;2023-04-01T00:50:42;9.20;99.90
59469;DHT22;45277;52.768;18.262;2023-04-01T00:52:19;9.20;99.90
59469;DHT22;45277;52.768;18.262;2023-04-01T00:53:56;9.20;99.90
59469;DHT22;45277;52.768;18.262;2023-04-01T00:55:32;9.20;99.90
59469;DHT22;45277;52.768;18.262;2023-04-01T00:57:15;9.20;99.90
59469;DHT22;45277;52.768;18.262;2023-04-01T00:58:54;9.20;99.90
59469;DHT22;45277;52.768;18.262;2023-04-01T01:00:27;9.20;99.90
59469;DHT22;45277;52.768;18.262;2023-04-01T01:01:59;9.20;99.90
59469;DHT22;45277;52.768;18.262;2023-04-01T01:03:32;9.20;99.90
59469;DHT22;45277;52.768;18.262;2023-04-01T01:05:03;9.20;99.90
59469;DHT22;45277;52.768;18.262;2023-04-01T01:10:56;9.10;99.90
59469;DHT22;45277;52.768;18.262;2023-04-01T01:15:58;9.00;99.90
59469;DHT22;45277;52.768;18.262;2023-04-01T01:27:12;9.00;99.90
59469;DHT22;45277;52.768;18.262;2023-04-01T01:28:55;9.00;99.90
59469;DHT22;45277;52.768;18.262;2023-04-01T01:35:58;8.90;99.90
59469;DHT22;45277;52.768;18.262;2023-04-01T01:37:31;8.90;99.90
59469;DHT22;45277;52.768;18.262;2023-04-01T01:39:05;8.90;99.90
59469;DHT22;45277;52.768;18.262;2023-04-01T01:40:41;8.90;99.90
59469;DHT22;45277;52.768;18.262;2023-04-01T01:42:15;8.90;99.90
59469;DHT22;45277;52.768;18.262;2023-04-01T01:43:50;8.80;99.90
59469;DHT22;45277;52.768;18.262;2023-04-01T01:45:24;8.80;99.90
59469;DHT22;45277;52.768;18.262;2023-04-01T01:46:56;8.80;99.90
59469;DHT22;45277;52.768;18.262;2023-04-01T01:48:29;8.80;99.90
59469;DHT22;45277;52.768;18.262;2023-04-01T01:50:02;8.80;99.90
59469;DHT22;45277;52.768;18.262;2023-04-01T01:51:34;8.80;99.90
59469;DHT22;45277;52.768;18.262;2023-04-01T01:53:11;8.80;99.90
59469;DHT22;45277;52.768;18.262;2023-04-01T01:54:54;8.70;99.90
59469;DHT22;45277;52.768;18.262;2023-04-01T01:56:28;8.80;99.90
59469;DHT22;45277;52.768;18.262;2023-04-01T01:58:20;8.70;99.90
59469;DHT22;45277;52.768;18.262;2023-04-01T01:59:56;8.70;99.90
59469;DHT22;45277;52.768;18.262;2023-04-01T02:01:32;8.70;99.90
59469;DHT22;45277;52.768;18.262;2023-04-01T02:03:06;8.70;99.90
59469;DHT22;45277;52.768;18.262;2023-04-01T02:04:40;8.70;99.90
59469;DHT22;45277;52.768;18.262;2023-04-01T02:06:17;8.70;99.90
59469;DHT22;45277;52.768;18.262;2023-04-01T02:08:03;8.70;99.90
59469;DHT22;45277;52.768;18.262;2023-04-01T02:09:37;8.70;99.90
59469;DHT22;45277;52.768;18.262;2023-04-01T02:11:12;8.70;99.90
59469;DHT22;45277;52.768;18.262;2023-04-01T02:12:44;8.60;99.90
59469;DHT22;45277;52.768;18.262;2023-04-01T02:14:23;8.70;99.90
59469;DHT22;45277;52.768;18.262;2023-04-01T02:15:59;8.70;99.90
59469;DHT22;45277;52.768;18.262;2023-04-01T02:17:33;8.60;99.90
59469;DHT22;45277;52.768;18.262;2023-04-01T02:19:05;8.70;99.90
59469;DHT22;45277;52.768;18.262;2023-04-01T02:20:41;8.70;99.90
59469;DHT22;45277;52.768;18.262;2023-04-01T02:22:18;8.80;99.90
59469;DHT22;45277;52.768;18.262;2023-04-01T02:23:52;8.70;99.90
59469;DHT22;45277;52.768;18.262;2023-04-01T02:25:27;8.70;99.90
59469;DHT22;45277;52.768;18.262;2023-04-01T02:27:00;8.70;99.90
59469;DHT22;45277;52.768;18.262;2023-04-01T02:28:31;8.70;99.90
59469;DHT22;45277;52.768;18.262;2023-04-01T02:30:04;8.70;99.90
59469;DHT22;45277;52.768;18.262;2023-04-01T02:31:36;8.60;99.90
59469;DHT22;45277;52.768;18.262;2023-04-01T02:33:08;8.60;99.90
59469;DHT22;45277;52.768;18.262;2023-04-01T02:34:41;8.60;99.90
59469;DHT22;45277;52.768;18.262;2023-04-01T02:36:14;8.60;99.90
59469;DHT22;45277;52.768;18.262;2023-04-01T02:37:49;8.60;99.90
59469;DHT22;45277;52.768;18.262;2023-04-01T02:39:20;8.60;99.90
59469;DHT22;45277;52.768;18.262;2023-04-01T02:40:59;8.70;99.90
59469;DHT22;45277;52.768;18.262;2023-04-01T02:42:31;8.70;99.90
59469;DHT22;45277;52.768;18.262;2023-04-01T02:44:02;8.70;99.90
59469;DHT22;45277;52.768;18.262;2023-04-01T02:45:34;8.70;99.90
59469;DHT22;45277;52.768;18.262;2023-04-01T02:47:05;8.70;99.90
59469;DHT22;45277;52.768;18.262;2023-04-01T02:48:37;8.70;99.90
59469;DHT22;45277;52.768;18.262;2023-04-01T02:50:09;8.70;99.90
59469;DHT22;45277;52.768;18.262;2023-04-01T02:51:41;8.70;99.90
59469;DHT22;45277;52.768;18.262;2023-04-01T02:53:12;8.70;99.90
59469;DHT22;45277;52.768;18.262;2023-04-01T02:54:44;8.70;99.90
59469;DHT22;45277;52.768;18.262;2023-04-01T02:56:15;8.70;99.90
59469;DHT22;45277;52.768;18.262;2023-04-01T02:57:47;8.70;99.90
59469;DHT22;45277;52.768;18.262;2023-04-01T02:59:18;8.70;99.90
59469;DHT22;45277;52.768;18.262;2023-04-01T03:00:49;8.70;99.90
59469;DHT22;45277;52.768;18.262;2023-04-01T03:02:21;8.70;99.90
59469;DHT22;45277;52.768;18.262;2023-04-01T03:03:53;8.70;99.90
59469;DHT22;45277;52.768;18.262;2023-04-01T03:05:24;8.70;99.90
59469;DHT22;45277;52.768;18.262;2023-04-01T03:06:56;8.70;99.90
59469;DHT22;45277;52.768;18.262;2023-04-01T03:08:27;8.70;99.90
59469;DHT22;45277;52.768;18.262;2023-04-01T03:09:59;8.70;99.90
59469;DHT22;45277;52.768;18.262;2023-04-01T03:11:30;8.70;99.90
59469;DHT22;45277;52.768;18.262;2023-04-01T03:13:02;8.70;99.90
59469;DHT22;45277;52.768;18.262;2023-04-01T03:14:33;8.70;99.90
59469;DHT22;45277;52.768;18.262;2023-04-01T03:16:04;8.70;99.90
59469;DHT22;45277;52.768;18.262;2023-04-01T03:17:36;8.70;99.90
59469;DHT22;45277;52.768;18.262;2023-04-01T03:19:07;8.70;99.90
59469;DHT22;45277;52.768;18.262;2023-04-01T03:20:38;8.70;99.90
59469;DHT22;45277;52.768;18.262;2023-04-01T03:22:11;8.70;99.90
59469;DHT22;45277;52.768;18.262;2023-04-01T03:23:42;8.70;99.90
59469;DHT22;45277;52.768;18.262;2023-04-01T03:25:14;8.70;99.90
59469;DHT22;45277;52.768;18.262;2023-04-01T03:26:45;8.70;99.90
59469;DHT22;45277;52.768;18.262;2023-04-01T03:28:17;8.70;99.90
59469;DHT22;45277;52.768;18.262;2023-04-01T03:29:48;8.70;99.90
59469;DHT22;45277;52.768;18.262;2023-04-01T03:31:20;8.70;99.90
59469;DHT22;45277;52.768;18.262;2023-04-01T03:32:51;8.70;99.90
59469;DHT22;45277;52.768;18.262;2023-04-01T03:34:23;8.60;99.90
59469;DHT22;45277;52.768;18.262;2023-04-01T03:35:55;8.70;99.90
59469;DHT22;45277;52.768;18.262;2023-04-01T03:37:26;8.70;99.90
59469;DHT22;45277;52.768;18.262;2023-04-01T03:38:57;8.70;99.90
59469;DHT22;45277;52.768;18.262;2023-04-01T03:40:29;8.70;99.90
59469;DHT22;45277;52.768;18.262;2023-04-01T03:42:00;8.70;99.90
59469;DHT22;45277;52.768;18.262;2023-04-01T03:43:32;8.80;99.90
59469;DHT22;45277;52.768;18.262;2023-04-01T03:45:05;8.80;99.90
59469;DHT22;45277;52.768;18.262;2023-04-01T03:46:36;8.70;99.90
59469;DHT22;45277;52.768;18.262;2023-04-01T03:48:08;8.70;99.90
59469;DHT22;45277;52.768;18.262;2023-04-01T03:49:39;8.80;99.90
59469;DHT22;45277;52.768;18.262;2023-04-01T03:51:11;8.70;99.90
59469;DHT22;45277;52.768;18.262;2023-04-01T03:52:42;8.80;99.90
59469;DHT22;45277;52.768;18.262;2023-04-01T03:54:14;8.80;99.90
59469;DHT22;45277;52.768;18.262;2023-04-01T03:55:45;8.80;99.90
59469;DHT22;45277;52.768;18.262;2023-04-01T03:57:17;8.80;99.90
59469;DHT22;45277;52.768;18.262;2023-04-01T03:58:49;8.80;99.90
59469;DHT22;45277;52.768;18.262;2023-04-01T04:00:20;8.90;99.90
59469;DHT22;45277;52.768;18.262;2023-04-01T04:01:51;8.80;99.90
59469;DHT22;45277;52.768;18.262;2023-04-01T04:03:23;8.80;99.90
59469;DHT22;45277;52.768;18.262;2023-04-01T04:04:54;8.80;99.90
59469;DHT22;45277;52.768;18.262;2023-04-01T04:06:26;8.80;99.90
59469;DHT22;45277;52.768;18.262;2023-04-01T04:07:58;8.80;99.90
59469;DHT22;45277;52.768;18.262;2023-04-01T04:09:32;8.80;99.90
59469;DHT22;45277;52.768;18.262;2023-04-01T04:11:04;8.90;99.90
59469;DHT22;45277;52.768;18.262;2023-04-01T04:12:35;8.90;99.90
59469;DHT22;45277;52.768;18.262;2023-04-01T04:14:07;8.90;99.90
59469;DHT22;45277;52.768;18.262;2023-04-01T04:15:38;8.80;99.90
59469;DHT22;45277;52.768;18.262;2023-04-01T04:17:11;8.90;99.90
59469;DHT22;45277;52.768;18.262;2023-04-01T04:18:47;8.90;99.90
59469;DHT22;45277;52.768;18.262;2023-04-01T04:20:18;8.90;99.90
59469;DHT22;45277;52.768;18.262;2023-04-01T04:21:50;8.90;99.90
59469;DHT22;45277;52.768;18.262;2023-04-01T04:23:21;8.90;99.90
59469;DHT22;45277;52.768;18.262;2023-04-01T04:24:53;8.90;99.90
59469;DHT22;45277;52.768;18.262;2023-04-01T04:26:24;8.80;99.90
59469;DHT22;45277;52.768;18.262;2023-04-01T04:27:56;8.90;99.90
59469;DHT22;45277;52.768;18.262;2023-04-01T04:29:28;8.90;99.90
59469;DHT22;45277;52.768;18.262;2023-04-01T04:31:00;8.80;99.90
59469;DHT22;45277;52.768;18.262;2023-04-01T04:32:32;8.90;99.90
59469;DHT22;45277;52.768;18.262;2023-04-01T04:34:03;8.90;99.90
59469;DHT22;45277;52.768;18.262;2023-04-01T04:35:35;8.90;99.90
59469;DHT22;45277;52.768;18.262;2023-04-01T04:37:06;8.90;99.90
59469;DHT22;45277;52.768;18.262;2023-04-01T04:38:37;8.90;99.90
59469;DHT22;45277;52.768;18.262;2023-04-01T04:40:09;8.80;99.90
59469;DHT22;45277;52.768;18.262;2023-04-01T04:41:41;8.80;99.90
59469;DHT22;45277;52.768;18.262;2023-04-01T04:43:15;8.90;99.90
59469;DHT22;45277;52.768;18.262;2023-04-01T04:44:47;8.90;99.90
59469;DHT22;45277;52.768;18.262;2023-04-01T04:46:18;8.90;99.90
59469;DHT22;45277;52.768;18.262;2023-04-01T04:47:50;8.90;99.90
59469;DHT22;45277;52.768;18.262;2023-04-01T04:49:22;8.80;99.90
59469;DHT22;45277;52.768;18.262;2023-04-01T04:50:53;8.80;99.90
59469;DHT22;45277;52.768;18.262;2023-04-01T04:52:24;8.90;99.90
59469;DHT22;45277;52.768;18.262;2023-04-01T04:53:56;8.80;99.90
59469;DHT22;45277;52.768;18.262;2023-04-01T04:55:27;8.90;99.90
59469;DHT22;45277;52.768;18.262;2023-04-01T04:56:58;8.90;99.90
59469;DHT22;45277;52.768;18.262;2023-04-01T04:58:30;8.90;99.90
59469;DHT22;45277;52.768;18.262;2023-04-01T05:00:02;8.90;99.90
59469;DHT22;45277;52.768;18.262;2023-04-01T05:01:33;8.90;99.90
59469;DHT22;45277;52.768;18.262;2023-04-01T05:03:06;9.00;99.90
59469;DHT22;45277;52.768;18.262;2023-04-01T05:04:37;8.90;99.90
59469;DHT22;45277;52.768;18.262;2023-04-01T05:06:10;9.00;99.90
59469;DHT22;45277;52.768;18.262;2023-04-01T05:07:42;9.00;99.90
59469;DHT22;45277;52.768;18.262;2023-04-01T05:09:14;8.90;99.90
59469;DHT22;45277;52.768;18.262;2023-04-01T05:10:46;8.90;99.90
59469;DHT22;45277;52.768;18.262;2023-04-01T05:12:18;9.00;99.90
59469;DHT22;45277;52.768;18.262;2023-04-01T05:13:49;8.90;99.90
59469;DHT22;45277;52.768;18.262;2023-04-01T05:15:21;8.90;99.90
59469;DHT22;45277;52.768;18.262;2023-04-01T05:16:53;8.80;99.90
59469;DHT22;45277;52.768;18.262;2023-04-01T05:18:25;8.90;99.90
59469;DHT22;45277;52.768;18.262;2023-04-01T05:19:57;8.80;99.90
59469;DHT22;45277;52.768;18.262;2023-04-01T05:21:28;8.80;99.90
59469;DHT22;45277;52.768;18.262;2023-04-01T05:23:00;8.80;99.90
59469;DHT22;45277;52.768;18.262;2023-04-01T05:24:32;8.80;99.90
59469;DHT22;45277;52.768;18.262;2023-04-01T05:26:05;8.70;99.90
59469;DHT22;45277;52.768;18.262;2023-04-01T05:27:37;8.70;99.90
59469;DHT22;45277;52.768;18.262;2023-04-01T05:29:08;8.70;99.90
59469;DHT22;45277;52.768;18.262;2023-04-01T05:30:41;8.70;99.90
59469;DHT22;45277;52.768;18.262;2023-04-01T05:32:12;8.60;99.90
59469;DHT22;45277;52.768;18.262;2023-04-01T05:33:44;8.60;99.90
59469;DHT22;45277;52.768;18.262;2023-04-01T05:35:15;8.60;99.90
59469;DHT22;45277;52.768;18.262;2023-04-01T05:36:47;8.70;99.90
59469;DHT22;45277;52.768;18.262;2023-04-01T05:38:18;8.70;99.90
59469;DHT22;45277;52.768;18.262;2023-04-01T05:39:50;8.50;99.90
59469;DHT22;45277;52.768;18.262;2023-04-01T05:41:21;8.60;99.90
59469;DHT22;45277;52.768;18.262;2023-04-01T05:42:53;8.60;99.90
59469;DHT22;45277;52.768;18.262;2023-04-01T05:44:24;8.60;99.90
59469;DHT22;45277;52.768;18.262;2023-04-01T05:45:56;8.60;99.90
59469;DHT22;45277;52.768;18.262;2023-04-01T05:47:28;8.60;99.90
59469;DHT22;45277;52.768;18.262;2023-04-01T05:48:59;8.50;99.90
59469;DHT22;45277;52.768;18.262;2023-04-01T05:50:31;8.50;99.90
59469;DHT22;45277;52.768;18.262;2023-04-01T05:52:02;8.50;99.90
59469;DHT22;45277;52.768;18.262;2023-04-01T05:53:34;8.50;99.90
59469;DHT22;45277;52.768;18.262;2023-04-01T05:55:06;8.50;99.90
59469;DHT22;45277;52.768;18.262;2023-04-01T05:56:37;8.50;99.90
59469;DHT22;45277;52.768;18.262;2023-04-01T05:58:09;8.40;99.90
59469;DHT22;45277;52.768;18.262;2023-04-01T05:59:40;8.30;99.90
59469;DHT22;45277;52.768;18.262;2023-04-01T06:01:11;8.30;99.90
59469;DHT22;45277;52.768;18.262;2023-04-01T06:02:43;8.20;99.90
59469;DHT22;45277;52.768;18.262;2023-04-01T06:04:17;8.10;99.90
59469;DHT22;45277;52.768;18.262;2023-04-01T06:05:48;8.10;99.90
59469;DHT22;45277;52.768;18.262;2023-04-01T06:07:20;8.10;99.90
59469;DHT22;45277;52.768;18.262;2023-04-01T06:08:52;8.00;99.90
59469;DHT22;45277;52.768;18.262;2023-04-01T06:10:42;8.00;99.90
59469;DHT22;45277;52.768;18.262;2023-04-01T06:16:18;7.90;99.90
59469;DHT22;45277;52.768;18.262;2023-04-01T06:25:00;7.70;99.90
59469;DHT22;45277;52.768;18.262;2023-04-01T06:26:37;7.60;99.90
59469;DHT22;45277;52.768;18.262;2023-04-01T06:34:35;7.60;99.90
59469;DHT22;45277;52.768;18.262;2023-04-01T06:36:36;7.60;99.90
59469;DHT22;45277;52.768;18.262;2023-04-01T06:46:11;7.40;99.90
59469;DHT22;45277;52.768;18.262;2023-04-01T06:55:37;7.20;99.90
59469;DHT22;45277;52.768;18.262;2023-04-01T06:57:23;7.20;99.90
59469;DHT22;45277;52.768;18.262;2023-04-01T06:59:04;7.20;99.90
59469;DHT22;45277;52.768;18.262;2023-04-01T07:00:39;7.20;99.90
59469;DHT22;45277;52.768;18.262;2023-04-01T07:02:32;7.20;99.90
59469;DHT22;45277;52.768;18.262;2023-04-01T07:04:13;7.20;99.90
59469;DHT22;45277;52.768;18.262;2023-04-01T07:05:52;7.20;99.90
59469;DHT22;45277;52.768;18.262;2023-04-01T07:07:49;7.20;99.90
59469;DHT22;45277;52.768;18.262;2023-04-01T07:09:28;7.20;99.90
59469;DHT22;45277;52.768;18.262;2023-04-01T07:11:30;7.10;99.90
59469;DHT22;45277;52.768;18.262;2023-04-01T07:13:28;7.10;99.90
59469;DHT22;45277;52.768;18.262;2023-04-01T07:16:53;7.10;99.90
59469;DHT22;45277;52.768;18.262;2023-04-01T07:18:56;7.10;99.90
59469;DHT22;45277;52.768;18.262;2023-04-01T07:20:32;7.00;99.90
59469;DHT22;45277;52.768;18.262;2023-04-01T07:22:27;7.00;99.90
59469;DHT22;45277;52.768;18.262;2023-04-01T07:24:04;7.10;99.90
59469;DHT22;45277;52.768;18.262;2023-04-01T07:25:45;7.10;99.90
59469;DHT22;45277;52.768;18.262;2023-04-01T07:27:17;7.20;99.90
59469;DHT22;45277;52.768;18.262;2023-04-01T07:28:51;7.20;99.90
59469;DHT22;45277;52.768;18.262;2023-04-01T07:30:24;7.10;99.90
59469;DHT22;45277;52.768;18.262;2023-04-01T07:35:54;7.10;99.90
59469;DHT22;45277;52.768;18.262;2023-04-01T07:37:38;7.10;99.90
59469;DHT22;45277;52.768;18.262;2023-04-01T07:43:34;7.10;99.90
59469;DHT22;45277;52.768;18.262;2023-04-01T07:49:10;7.10;99.90
59469;DHT22;45277;52.768;18.262;2023-04-01T07:54:49;7.10;99.90
59469;DHT22;45277;52.768;18.262;2023-04-01T07:56:23;7.10;99.90
59469;DHT22;45277;52.768;18.262;2023-04-01T08:00:02;7.10;99.90
59469;DHT22;45277;52.768;18.262;2023-04-01T08:05:27;7.20;99.90
59469;DHT22;45277;52.768;18.262;2023-04-01T08:07:18;7.20;99.90
59469;DHT22;45277;52.768;18.262;2023-04-01T08:11:12;7.40;99.90
59469;DHT22;45277;52.768;18.262;2023-04-01T08:20:31;7.50;99.90
59469;DHT22;45277;52.768;18.262;2023-04-01T08:22:11;7.50;99.90
59469;DHT22;45277;52.768;18.262;2023-04-01T08:23:52;7.60;99.90
59469;DHT22;45277;52.768;18.262;2023-04-01T08:25:27;7.60;99.90
59469;DHT22;45277;52.768;18.262;2023-04-01T08:27:03;7.50;99.90
59469;DHT22;45277;52.768;18.262;2023-04-01T08:28:50;7.50;99.90
59469;DHT22;45277;52.768;18.262;2023-04-01T08:30:37;7.50;99.90
59469;DHT22;45277;52.768;18.262;2023-04-01T08:32:22;7.50;99.90
59469;DHT22;45277;52.768;18.262;2023-04-01T08:33:55;7.50;99.90
59469;DHT22;45277;52.768;18.262;2023-04-01T08:35:34;7.50;99.90
59469;DHT22;45277;52.768;18.262;2023-04-01T08:37:28;7.50;99.90
59469;DHT22;45277;52.768;18.262;2023-04-01T08:39:57;7.50;99.90
59469;DHT22;45277;52.768;18.262;2023-04-01T08:51:06;7.60;99.90
59469;DHT22;45277;52.768;18.262;2023-04-01T08:56:58;7.70;99.90
59469;DHT22;45277;52.768;18.262;2023-04-01T09:00:33;7.80;99.90
59469;DHT22;45277;52.768;18.262;2023-04-01T09:02:22;7.80;99.90
59469;DHT22;45277;52.768;18.262;2023-04-01T09:11:59;7.80;99.90
59469;DHT22;45277;52.768;18.262;2023-04-01T09:19:11;7.90;99.90
59469;DHT22;45277;52.768;18.262;2023-04-01T09:22:25;7.80;99.90
59469;DHT22;45277;52.768;18.262;2023-04-01T09:28:17;7.70;99.90
59469;DHT22;45277;52.768;18.262;2023-04-01T09:29:37;7.80;99.90
59469;DHT22;45277;52.768;18.262;2023-04-01T09:35:47;7.80;99.90
59469;DHT22;45277;52.768;18.262;2023-04-01T09:37:35;7.80;99.90
59469;DHT22;45277;52.768;18.262;2023-04-01T09:39:18;7.80;99.90
59469;DHT22;45277;52.768;18.262;2023-04-01T09:41:24;7.80;99.90
59469;DHT22;45277;52.768;18.262;2023-04-01T09:43:06;7.80;99.90
59469;DHT22;45277;52.768;18.262;2023-04-01T09:45:00;7.70;99.90
59469;DHT22;45277;52.768;18.262;2023-04-01T09:53:46;7.60;99.90
59469;DHT22;45277;52.768;18.262;2023-04-01T09:57:28;7.70;99.90
59469;DHT22;45277;52.768;18.262;2023-04-01T10:01:08;7.70;99.90
59469;DHT22;45277;52.768;18.262;2023-04-01T10:03:13;7.70;99.90
59469;DHT22;45277;52.768;18.262;2023-04-01T10:05:11;7.70;99.90
59469;DHT22;45277;52.768;18.262;2023-04-01T10:15:54;7.80;99.90
59469;DHT22;45277;52.768;18.262;2023-04-01T10:17:56;7.70;99.90
59469;DHT22;45277;52.768;18.262;2023-04-01T10:24:21;7.70;99.90
59469;DHT22;45277;52.768;18.262;2023-04-01T10:26:07;7.70;99.90
59469;DHT22;45277;52.768;18.262;2023-04-01T10:27:57;7.70;99.90
59469;DHT22;45277;52.768;18.262;2023-04-01T10:35:23;7.90;99.90
59469;DHT22;45277;52.768;18.262;2023-04-01T10:37:49;7.90;99.90
59469;DHT22;45277;52.768;18.262;2023-04-01T10:39:37;7.90;99.90
59469;DHT22;45277;52.768;18.262;2023-04-01T10:41:17;8.00;99.90
59469;DHT22;45277;52.768;18.262;2023-04-01T10:47:09;8.20;99.90
59469;DHT22;45277;52.768;18.262;2023-04-01T10:51:14;8.40;99.90
59469;DHT22;45277;52.768;18.262;2023-04-01T10:55:04;8.40;99.90
59469;DHT22;45277;52.768;18.262;2023-04-01T10:59:28;8.40;99.90
59469;DHT22;45277;52.768;18.262;2023-04-01T11:05:20;8.30;99.90
59469;DHT22;45277;52.768;18.262;2023-04-01T11:12:41;8.40;99.90
59469;DHT22;45277;52.768;18.262;2023-04-01T11:17:53;8.40;99.90
59469;DHT22;45277;52.768;18.262;2023-04-01T11:21:19;8.30;99.90
59469;DHT22;45277;52.768;18.262;2023-04-01T11:27:23;8.30;99.90
59469;DHT22;45277;52.768;18.262;2023-04-01T11:36:25;8.50;99.90
59469;DHT22;45277;52.768;18.262;2023-04-01T11:41:41;8.60;99.90
59469;DHT22;45277;52.768;18.262;2023-04-01T11:43:40;8.50;99.90
59469;DHT22;45277;52.768;18.262;2023-04-01T11:49:59;8.50;99.90
59469;DHT22;45277;52.768;18.262;2023-04-01T11:51:57;8.50;99.90
59469;DHT22;45277;52.768;18.262;2023-04-01T11:53:47;8.60;99.90
59469;DHT22;45277;52.768;18.262;2023-04-01T11:58:10;8.60;99.90
59469;DHT22;45277;52.768;18.262;2023-04-01T12:01:53;8.50;99.90
59469;DHT22;45277;52.768;18.262;2023-04-01T12:05:42;8.50;99.90
59469;DHT22;45277;52.768;18.262;2023-04-01T12:07:40;8.60;99.90
59469;DHT22;45277;52.768;18.262;2023-04-01T12:19:29;8.70;99.90
59469;DHT22;45277;52.768;18.262;2023-04-01T12:21:35;8.50;99.90
59469;DHT22;45277;52.768;18.262;2023-04-01T12:23:32;8.50;99.90
59469;DHT22;45277;52.768;18.262;2023-04-01T12:27:12;8.20;99.90
59469;DHT22;45277;52.768;18.262;2023-04-01T12:28:54;8.20;99.90
59469;DHT22;45277;52.768;18.262;2023-04-01T12:32:25;8.30;99.90
59469;DHT22;45277;52.768;18.262;2023-04-01T12:34:32;8.30;99.90
59469;DHT22;45277;52.768;18.262;2023-04-01T12:36:19;8.30;99.90
59469;DHT22;45277;52.768;18.262;2023-04-01T12:38:17;8.40;99.90
59469;DHT22;45277;52.768;18.262;2023-04-01T12:40:02;8.30;99.90
59469;DHT22;45277;52.768;18.262;2023-04-01T12:51:34;8.50;99.90
59469;DHT22;45277;52.768;18.262;2023-04-01T12:55:25;8.40;99.90
59469;DHT22;45277;52.768;18.262;2023-04-01T13:02:37;8.50;99.90
59469;DHT22;45277;52.768;18.262;2023-04-01T13:06:25;8.60;99.90
59469;DHT22;45277;52.768;18.262;2023-04-01T13:08:04;8.50;99.90
59469;DHT22;45277;52.768;18.262;2023-04-01T13:09:50;8.70;99.90
59469;DHT22;45277;52.768;18.262;2023-04-01T13:17:15;8.50;99.90
59469;DHT22;45277;52.768;18.262;2023-04-01T13:33:04;8.80;99.90
59469;DHT22;45277;52.768;18.262;2023-04-01T13:37:31;8.70;99.90
59469;DHT22;45277;52.768;18.262;2023-04-01T13:45:20;8.60;99.90
59469;DHT22;45277;52.768;18.262;2023-04-01T13:50:56;9.00;99.90
59469;DHT22;45277;52.768;18.262;2023-04-01T13:52:59;9.10;99.90
59469;DHT22;45277;52.768;18.262;2023-04-01T13:55:06;9.10;99.90
59469;DHT22;45277;52.768;18.262;2023-04-01T13:56:50;9.30;99.90
59469;DHT22;45277;52.768;18.262;2023-04-01T13:58:45;9.30;99.90
59469;DHT22;45277;52.768;18.262;2023-04-01T14:15:57;9.50;99.90
59469;DHT22;45277;52.768;18.262;2023-04-01T14:21:38;9.40;99.90
59469;DHT22;45277;52.768;18.262;2023-04-01T14:30:41;9.30;99.90
59469;DHT22;45277;52.768;18.262;2023-04-01T14:32:30;9.30;99.90
59469;DHT22;45277;52.768;18.262;2023-04-01T14:38:11;9.20;99.90
59469;DHT22;45277;52.768;18.262;2023-04-01T14:44:05;8.90;99.90
59469;DHT22;45277;52.768;18.262;2023-04-01T14:47:59;8.90;99.90
59469;DHT22;45277;52.768;18.262;2023-04-01T14:49:43;8.80;99.90
59469;DHT22;45277;52.768;18.262;2023-04-01T14:53:23;8.80;99.90
59469;DHT22;45277;52.768;18.262;2023-04-01T14:54:58;8.80;99.90
59469;DHT22;45277;52.768;18.262;2023-04-01T14:56:47;8.70;99.90
59469;DHT22;45277;52.768;18.262;2023-04-01T14:58:21;8.70;99.90
59469;DHT22;45277;52.768;18.262;2023-04-01T15:00:15;8.60;99.90
59469;DHT22;45277;52.768;18.262;2023-04-01T15:09:52;8.50;99.90
59469;DHT22;45277;52.768;18.262;2023-04-01T15:11:48;8.50;99.90
59469;DHT22;45277;52.768;18.262;2023-04-01T15:15:13;8.50;99.90
59469;DHT22;45277;52.768;18.262;2023-04-01T15:17:02;8.50;99.90
59469;DHT22;45277;52.768;18.262;2023-04-01T15:21:18;8.20;99.90
59469;DHT22;45277;52.768;18.262;2023-04-01T15:27:15;7.70;99.90
59469;DHT22;45277;52.768;18.262;2023-04-01T15:36:25;7.50;99.90
59469;DHT22;45277;52.768;18.262;2023-04-01T15:40:14;7.50;99.90
59469;DHT22;45277;52.768;18.262;2023-04-01T15:43:45;7.40;99.90
59469;DHT22;45277;52.768;18.262;2023-04-01T16:05:43;6.80;99.90
59469;DHT22;45277;52.768;18.262;2023-04-01T16:11:34;6.70;99.90
59469;DHT22;45277;52.768;18.262;2023-04-01T16:15:16;6.50;99.90
59469;DHT22;45277;52.768;18.262;2023-04-01T16:17:25;6.60;99.90
59469;DHT22;45277;52.768;18.262;2023-04-01T16:22:39;6.50;99.90
59469;DHT22;45277;52.768;18.262;2023-04-01T16:24:20;6.40;99.90
59469;DHT22;45277;52.768;18.262;2023-04-01T16:26:16;6.40;99.90
59469;DHT22;45277;52.768;18.262;2023-04-01T16:29:51;6.30;99.90
59469;DHT22;45277;52.768;18.262;2023-04-01T16:31:45;6.30;99.90
59469;DHT22;45277;52.768;18.262;2023-04-01T16:33:27;6.20;99.90